McGrady, North Carolina
Current Conditions -  °F | °C
As of 6:15 AM on Wednesday 26 Nov 2014 (Local Time) from KUKF Reporting Station
Light Rain Light Rain  
Wind Chill: 38°   Ceiling: 300
Heat Index: 41°   Visibility: 10mi
Dew Point: 41°   Wind: 5mph
Humidity: 100%   Direction: 60°ENE
Pressure: 30.02"   Gusts: NA
Location:  36.34°N, 81.22°W
Report Text: KUKF 261115Z AUTO 06004KT 10SM -RA BKN003 BKN009 OVC017 05/05 A3002 RMK AO2 P0002
Loading
Personal Weather Stations






























Interactive Weather Map New forecast layout! Learn more

10-Day Weather Forecast

Advertisements
Track Severe Weather on mobile